sensor_id;sensor_type;location;lat;lon;timestamp;P1;durP1;ratioP1;P2;durP2;ratioP2
42084;SDS011;27746;52.228;20.890;2023-07-20T00:00:26;7.82;;;2.47;;
42084;SDS011;27746;52.228;20.890;2023-07-20T00:02:57;5.47;;;2.10;;
42084;SDS011;27746;52.228;20.890;2023-07-20T00:05:37;6.65;;;2.45;;
42084;SDS011;27746;52.228;20.890;2023-07-20T00:08:05;5.30;;;2.35;;
42084;SDS011;27746;52.228;20.890;2023-07-20T00:10:33;3.72;;;2.00;;
42084;SDS011;27746;52.228;20.890;2023-07-20T00:13:00;5.32;;;2.30;;
42084;SDS011;27746;52.228;20.890;2023-07-20T00:15:27;5.40;;;2.38;;
42084;SDS011;27746;52.228;20.890;2023-07-20T00:17:54;6.85;;;2.00;;
42084;SDS011;27746;52.228;20.890;2023-07-20T00:20:23;4.68;;;2.55;;
42084;SDS011;27746;52.228;20.890;2023-07-20T00:22:51;4.85;;;2.58;;
42084;SDS011;27746;52.228;20.890;2023-07-20T00:25:19;3.47;;;2.03;;
42084;SDS011;27746;52.228;20.890;2023-07-20T00:27:48;4.05;;;2.20;;
42084;SDS011;27746;52.228;20.890;2023-07-20T00:30:15;5.90;;;2.70;;
42084;SDS011;27746;52.228;20.890;2023-07-20T00:32:42;7.65;;;3.03;;
42084;SDS011;27746;52.228;20.890;2023-07-20T00:35:09;5.00;;;2.45;;
42084;SDS011;27746;52.228;20.890;2023-07-20T00:37:37;7.22;;;2.65;;
42084;SDS011;27746;52.228;20.890;2023-07-20T00:40:05;5.63;;;2.50;;
42084;SDS011;27746;52.228;20.890;2023-07-20T00:42:33;3.63;;;2.10;;
42084;SDS011;27746;52.228;20.890;2023-07-20T00:45:01;4.88;;;2.55;;
42084;SDS011;27746;52.228;20.890;2023-07-20T00:47:31;4.80;;;2.40;;
42084;SDS011;27746;52.228;20.890;2023-07-20T00:49:59;6.70;;;2.42;;
42084;SDS011;27746;52.228;20.890;2023-07-20T00:52:26;5.35;;;2.50;;
42084;SDS011;27746;52.228;20.890;2023-07-20T00:54:54;5.22;;;2.83;;
42084;SDS011;27746;52.228;20.890;2023-07-20T00:57:22;6.50;;;2.75;;
42084;SDS011;27746;52.228;20.890;2023-07-20T00:59:51;5.68;;;2.55;;
42084;SDS011;27746;52.228;20.890;2023-07-20T01:02:20;6.35;;;2.47;;
42084;SDS011;27746;52.228;20.890;2023-07-20T01:04:47;5.00;;;2.60;;
42084;SDS011;27746;52.228;20.890;2023-07-20T01:07:14;21.90;;;3.92;;
42084;SDS011;27746;52.228;20.890;2023-07-20T01:09:48;7.18;;;3.15;;
42084;SDS011;27746;52.228;20.890;2023-07-20T01:12:22;6.95;;;2.80;;
42084;SDS011;27746;52.228;20.890;2023-07-20T01:14:52;7.97;;;3.08;;
42084;SDS011;27746;52.228;20.890;2023-07-20T01:17:21;6.45;;;3.25;;
42084;SDS011;27746;52.228;20.890;2023-07-20T01:19:49;7.70;;;3.85;;
42084;SDS011;27746;52.228;20.890;2023-07-20T01:25:28;9.23;;;3.22;;
42084;SDS011;27746;52.228;20.890;2023-07-20T01:28:22;9.00;;;3.53;;
42084;SDS011;27746;52.228;20.890;2023-07-20T01:33:54;6.93;;;3.17;;
42084;SDS011;27746;52.228;20.890;2023-07-20T01:36:24;6.00;;;3.88;;
42084;SDS011;27746;52.228;20.890;2023-07-20T01:38:52;6.57;;;3.30;;
42084;SDS011;27746;52.228;20.890;2023-07-20T01:41:20;6.85;;;3.70;;
42084;SDS011;27746;52.228;20.890;2023-07-20T01:43:48;8.38;;;3.58;;
42084;SDS011;27746;52.228;20.890;2023-07-20T01:46:15;7.20;;;3.28;;
42084;SDS011;27746;52.228;20.890;2023-07-20T01:48:43;7.13;;;3.53;;
42084;SDS011;27746;52.228;20.890;2023-07-20T01:51:10;6.95;;;3.88;;
42084;SDS011;27746;52.228;20.890;2023-07-20T01:53:37;6.55;;;3.67;;
42084;SDS011;27746;52.228;20.890;2023-07-20T01:56:05;7.15;;;3.83;;
42084;SDS011;27746;52.228;20.890;2023-07-20T01:58:32;8.57;;;3.78;;
42084;SDS011;27746;52.228;20.890;2023-07-20T02:01:00;7.55;;;3.83;;
42084;SDS011;27746;52.228;20.890;2023-07-20T02:03:28;5.63;;;3.10;;
42084;SDS011;27746;52.228;20.890;2023-07-20T02:05:56;6.75;;;3.50;;
42084;SDS011;27746;52.228;20.890;2023-07-20T02:08:23;7.50;;;3.55;;
42084;SDS011;27746;52.228;20.890;2023-07-20T02:10:50;4.90;;;3.38;;
42084;SDS011;27746;52.228;20.890;2023-07-20T02:13:18;5.82;;;3.35;;
42084;SDS011;27746;52.228;20.890;2023-07-20T02:15:45;4.35;;;3.10;;
42084;SDS011;27746;52.228;20.890;2023-07-20T02:18:14;6.75;;;3.45;;
42084;SDS011;27746;52.228;20.890;2023-07-20T02:20:41;6.03;;;3.10;;
42084;SDS011;27746;52.228;20.890;2023-07-20T02:23:10;4.82;;;3.25;;
42084;SDS011;27746;52.228;20.890;2023-07-20T02:25:37;6.57;;;3.30;;
42084;SDS011;27746;52.228;20.890;2023-07-20T02:28:04;10.20;;;3.67;;
42084;SDS011;27746;52.228;20.890;2023-07-20T02:30:31;5.22;;;3.10;;
42084;SDS011;27746;52.228;20.890;2023-07-20T02:32:59;6.82;;;3.35;;
42084;SDS011;27746;52.228;20.890;2023-07-20T02:35:26;7.82;;;3.63;;
42084;SDS011;27746;52.228;20.890;2023-07-20T02:37:53;5.75;;;3.47;;
42084;SDS011;27746;52.228;20.890;2023-07-20T02:40:22;7.60;;;3.00;;
42084;SDS011;27746;52.228;20.890;2023-07-20T02:42:49;6.18;;;3.33;;
42084;SDS011;27746;52.228;20.890;2023-07-20T02:45:16;5.30;;;3.40;;
42084;SDS011;27746;52.228;20.890;2023-07-20T02:47:43;5.68;;;2.70;;
42084;SDS011;27746;52.228;20.890;2023-07-20T02:50:11;4.78;;;3.00;;
42084;SDS011;27746;52.228;20.890;2023-07-20T02:52:39;5.53;;;3.42;;
42084;SDS011;27746;52.228;20.890;2023-07-20T02:55:06;6.70;;;3.05;;
42084;SDS011;27746;52.228;20.890;2023-07-20T02:57:35;4.82;;;2.70;;
42084;SDS011;27746;52.228;20.890;2023-07-20T03:00:02;5.43;;;3.13;;
42084;SDS011;27746;52.228;20.890;2023-07-20T03:02:30;5.60;;;3.20;;
42084;SDS011;27746;52.228;20.890;2023-07-20T03:04:58;7.55;;;3.72;;
42084;SDS011;27746;52.228;20.890;2023-07-20T03:07:26;7.43;;;3.65;;
42084;SDS011;27746;52.228;20.890;2023-07-20T03:09:54;6.07;;;3.30;;
42084;SDS011;27746;52.228;20.890;2023-07-20T03:12:21;6.93;;;3.22;;
42084;SDS011;27746;52.228;20.890;2023-07-20T03:14:50;5.90;;;3.25;;
42084;SDS011;27746;52.228;20.890;2023-07-20T03:17:17;7.53;;;3.35;;
42084;SDS011;27746;52.228;20.890;2023-07-20T03:19:45;5.82;;;3.15;;
42084;SDS011;27746;52.228;20.890;2023-07-20T03:22:12;7.65;;;3.22;;
42084;SDS011;27746;52.228;20.890;2023-07-20T03:24:39;5.78;;;3.00;;
42084;SDS011;27746;52.228;20.890;2023-07-20T03:27:06;6.72;;;3.10;;
42084;SDS011;27746;52.228;20.890;2023-07-20T03:29:33;5.80;;;3.00;;
42084;SDS011;27746;52.228;20.890;2023-07-20T03:32:02;9.27;;;3.88;;
42084;SDS011;27746;52.228;20.890;2023-07-20T03:34:29;8.10;;;2.67;;
42084;SDS011;27746;52.228;20.890;2023-07-20T03:36:56;6.85;;;3.40;;
42084;SDS011;27746;52.228;20.890;2023-07-20T03:39:24;8.10;;;3.42;;
42084;SDS011;27746;52.228;20.890;2023-07-20T03:41:51;8.88;;;3.78;;
42084;SDS011;27746;52.228;20.890;2023-07-20T03:44:18;13.95;;;3.35;;
42084;SDS011;27746;52.228;20.890;2023-07-20T03:46:45;6.00;;;3.25;;
42084;SDS011;27746;52.228;20.890;2023-07-20T03:49:14;6.15;;;3.60;;
42084;SDS011;27746;52.228;20.890;2023-07-20T03:51:40;6.32;;;3.80;;
42084;SDS011;27746;52.228;20.890;2023-07-20T03:54:08;10.25;;;3.20;;
42084;SDS011;27746;52.228;20.890;2023-07-20T03:56:35;12.52;;;3.97;;
42084;SDS011;27746;52.228;20.890;2023-07-20T03:59:02;8.45;;;3.17;;
42084;SDS011;27746;52.228;20.890;2023-07-20T04:01:29;6.25;;;3.30;;
42084;SDS011;27746;52.228;20.890;2023-07-20T04:04:02;5.67;;;3.47;;
42084;SDS011;27746;52.228;20.890;2023-07-20T04:06:31;6.20;;;3.75;;
42084;SDS011;27746;52.228;20.890;2023-07-20T04:08:58;7.72;;;4.03;;
42084;SDS011;27746;52.228;20.890;2023-07-20T04:11:25;7.13;;;3.60;;
42084;SDS011;27746;52.228;20.890;2023-07-20T04:13:52;8.23;;;3.70;;
42084;SDS011;27746;52.228;20.890;2023-07-20T04:16:21;5.97;;;3.67;;
42084;SDS011;27746;52.228;20.890;2023-07-20T04:18:48;8.27;;;4.55;;
42084;SDS011;27746;52.228;20.890;2023-07-20T04:21:15;9.13;;;3.88;;
42084;SDS011;27746;52.228;20.890;2023-07-20T04:23:43;7.72;;;4.43;;
42084;SDS011;27746;52.228;20.890;2023-07-20T04:26:10;8.82;;;4.05;;
42084;SDS011;27746;52.228;20.890;2023-07-20T04:28:39;8.43;;;4.60;;
42084;SDS011;27746;52.228;20.890;2023-07-20T04:31:10;7.63;;;4.43;;
42084;SDS011;27746;52.228;20.890;2023-07-20T04:33:38;8.43;;;4.00;;
42084;SDS011;27746;52.228;20.890;2023-07-20T04:36:05;7.75;;;3.88;;
42084;SDS011;27746;52.228;20.890;2023-07-20T04:38:32;7.10;;;4.13;;
42084;SDS011;27746;52.228;20.890;2023-07-20T04:41:00;8.05;;;4.45;;
42084;SDS011;27746;52.228;20.890;2023-07-20T04:43:28;6.07;;;3.83;;
42084;SDS011;27746;52.228;20.890;2023-07-20T04:45:56;7.25;;;4.40;;
42084;SDS011;27746;52.228;20.890;2023-07-20T04:48:23;8.82;;;4.28;;
42084;SDS011;27746;52.228;20.890;2023-07-20T04:50:50;11.95;;;4.75;;
42084;SDS011;27746;52.228;20.890;2023-07-20T04:53:17;8.98;;;4.50;;
42084;SDS011;27746;52.228;20.890;2023-07-20T04:55:47;10.32;;;4.70;;
42084;SDS011;27746;52.228;20.890;2023-07-20T04:58:18;7.15;;;4.32;;
42084;SDS011;27746;52.228;20.890;2023-07-20T05:00:46;7.30;;;3.83;;
42084;SDS011;27746;52.228;20.890;2023-07-20T05:03:14;8.65;;;3.90;;
42084;SDS011;27746;52.228;20.890;2023-07-20T05:05:41;7.53;;;3.90;;
42084;SDS011;27746;52.228;20.890;2023-07-20T05:08:08;6.13;;;4.03;;
42084;SDS011;27746;52.228;20.890;2023-07-20T05:10:35;10.25;;;5.00;;
42084;SDS011;27746;52.228;20.890;2023-07-20T05:13:02;7.72;;;6.00;;
42084;SDS011;27746;52.228;20.890;2023-07-20T05:15:32;8.00;;;4.45;;
42084;SDS011;27746;52.228;20.890;2023-07-20T05:17:59;7.35;;;4.00;;
42084;SDS011;27746;52.228;20.890;2023-07-20T05:20:26;6.85;;;4.00;;
42084;SDS011;27746;52.228;20.890;2023-07-20T05:22:54;7.38;;;4.38;;
42084;SDS011;27746;52.228;20.890;2023-07-20T05:25:23;9.55;;;4.13;;
42084;SDS011;27746;52.228;20.890;2023-07-20T05:27:51;8.40;;;4.68;;
42084;SDS011;27746;52.228;20.890;2023-07-20T05:30:20;6.60;;;4.03;;
42084;SDS011;27746;52.228;20.890;2023-07-20T05:32:48;5.75;;;3.60;;
42084;SDS011;27746;52.228;20.890;2023-07-20T05:35:17;7.88;;;4.18;;
42084;SDS011;27746;52.228;20.890;2023-07-20T05:37:44;7.82;;;4.20;;
42084;SDS011;27746;52.228;20.890;2023-07-20T05:40:11;7.75;;;4.85;;
42084;SDS011;27746;52.228;20.890;2023-07-20T05:42:39;8.25;;;4.53;;
42084;SDS011;27746;52.228;20.890;2023-07-20T05:45:06;6.68;;;4.28;;
42084;SDS011;27746;52.228;20.890;2023-07-20T05:47:34;8.98;;;4.40;;
42084;SDS011;27746;52.228;20.890;2023-07-20T05:50:02;6.45;;;4.93;;
42084;SDS011;27746;52.228;20.890;2023-07-20T05:52:29;7.82;;;4.20;;
42084;SDS011;27746;52.228;20.890;2023-07-20T05:54:56;9.40;;;4.43;;
42084;SDS011;27746;52.228;20.890;2023-07-20T05:57:23;8.32;;;4.65;;
42084;SDS011;27746;52.228;20.890;2023-07-20T05:59:50;6.38;;;4.20;;
42084;SDS011;27746;52.228;20.890;2023-07-20T06:02:17;10.57;;;4.47;;
42084;SDS011;27746;52.228;20.890;2023-07-20T06:04:44;9.73;;;5.15;;
42084;SDS011;27746;52.228;20.890;2023-07-20T06:07:13;8.68;;;4.78;;
42084;SDS011;27746;52.228;20.890;2023-07-20T06:09:39;7.05;;;4.57;;
42084;SDS011;27746;52.228;20.890;2023-07-20T06:12:07;8.57;;;4.70;;
42084;SDS011;27746;52.228;20.890;2023-07-20T06:14:35;8.65;;;4.63;;
42084;SDS011;27746;52.228;20.890;2023-07-20T06:17:01;6.10;;;4.43;;
42084;SDS011;27746;52.228;20.890;2023-07-20T06:19:29;6.78;;;4.53;;
42084;SDS011;27746;52.228;20.890;2023-07-20T06:21:55;9.38;;;4.63;;
42084;SDS011;27746;52.228;20.890;2023-07-20T06:24:24;8.13;;;4.45;;
42084;SDS011;27746;52.228;20.890;2023-07-20T06:26:50;8.00;;;4.35;;
42084;SDS011;27746;52.228;20.890;2023-07-20T06:29:17;6.85;;;4.60;;
42084;SDS011;27746;52.228;20.890;2023-07-20T06:31:44;6.90;;;4.28;;
42084;SDS011;27746;52.228;20.890;2023-07-20T06:34:11;8.02;;;4.80;;
42084;SDS011;27746;52.228;20.890;2023-07-20T06:36:38;9.82;;;5.07;;
42084;SDS011;27746;52.228;20.890;2023-07-20T06:39:05;10.20;;;4.65;;
42084;SDS011;27746;52.228;20.890;2023-07-20T06:41:34;8.73;;;4.78;;
42084;SDS011;27746;52.228;20.890;2023-07-20T06:44:00;7.97;;;5.15;;
42084;SDS011;27746;52.228;20.890;2023-07-20T06:46:28;6.60;;;4.13;;
42084;SDS011;27746;52.228;20.890;2023-07-20T06:48:55;9.02;;;4.93;;
42084;SDS011;27746;52.228;20.890;2023-07-20T06:51:22;8.93;;;5.30;;
42084;SDS011;27746;52.228;20.890;2023-07-20T06:53:49;7.95;;;4.80;;
42084;SDS011;27746;52.228;20.890;2023-07-20T06:56:16;8.90;;;5.05;;
42084;SDS011;27746;52.228;20.890;2023-07-20T06:58:45;8.38;;;4.35;;
42084;SDS011;27746;52.228;20.890;2023-07-20T07:01:12;7.38;;;4.47;;
42084;SDS011;27746;52.228;20.890;2023-07-20T07:03:40;6.78;;;4.53;;
42084;SDS011;27746;52.228;20.890;2023-07-20T07:06:06;9.10;;;4.80;;
42084;SDS011;27746;52.228;20.890;2023-07-20T07:08:34;9.00;;;4.57;;
42084;SDS011;27746;52.228;20.890;2023-07-20T07:11:01;8.10;;;4.93;;
42084;SDS011;27746;52.228;20.890;2023-07-20T07:13:29;9.55;;;5.68;;
42084;SDS011;27746;52.228;20.890;2023-07-20T07:15:58;7.32;;;4.85;;
42084;SDS011;27746;52.228;20.890;2023-07-20T07:18:24;10.88;;;5.43;;
42084;SDS011;27746;52.228;20.890;2023-07-20T07:20:52;8.95;;;5.22;;
42084;SDS011;27746;52.228;20.890;2023-07-20T07:23:19;11.43;;;4.85;;
42084;SDS011;27746;52.228;20.890;2023-07-20T07:25:46;8.63;;;4.68;;
42084;SDS011;27746;52.228;20.890;2023-07-20T07:28:13;10.98;;;4.85;;
42084;SDS011;27746;52.228;20.890;2023-07-20T07:30:40;9.05;;;5.20;;
42084;SDS011;27746;52.228;20.890;2023-07-20T07:33:09;7.63;;;4.70;;
42084;SDS011;27746;52.228;20.890;2023-07-20T07:35:36;8.27;;;5.10;;
42084;SDS011;27746;52.228;20.890;2023-07-20T07:38:03;9.30;;;5.30;;
42084;SDS011;27746;52.228;20.890;2023-07-20T07:40:31;8.60;;;4.50;;
42084;SDS011;27746;52.228;20.890;2023-07-20T07:42:59;8.45;;;5.38;;
42084;SDS011;27746;52.228;20.890;2023-07-20T07:45:26;8.23;;;5.22;;
42084;SDS011;27746;52.228;20.890;2023-07-20T07:47:53;9.48;;;4.85;;
42084;SDS011;27746;52.228;20.890;2023-07-20T07:50:21;7.05;;;4.43;;
42084;SDS011;27746;52.228;20.890;2023-07-20T07:52:49;7.40;;;4.70;;
42084;SDS011;27746;52.228;20.890;2023-07-20T07:55:16;11.55;;;4.95;;
42084;SDS011;27746;52.228;20.890;2023-07-20T07:57:43;9.05;;;4.82;;
42084;SDS011;27746;52.228;20.890;2023-07-20T08:00:10;7.90;;;4.70;;
42084;SDS011;27746;52.228;20.890;2023-07-20T08:02:39;8.48;;;4.28;;
42084;SDS011;27746;52.228;20.890;2023-07-20T08:05:07;7.55;;;4.47;;
42084;SDS011;27746;52.228;20.890;2023-07-20T08:07:36;9.95;;;5.18;;
42084;SDS011;27746;52.228;20.890;2023-07-20T08:10:03;9.07;;;4.70;;
42084;SDS011;27746;52.228;20.890;2023-07-20T08:12:31;6.20;;;4.65;;
42084;SDS011;27746;52.228;20.890;2023-07-20T08:14:58;6.82;;;4.43;;
42084;SDS011;27746;52.228;20.890;2023-07-20T08:17:25;7.20;;;4.65;;
42084;SDS011;27746;52.228;20.890;2023-07-20T08:19:52;8.02;;;5.10;;
42084;SDS011;27746;52.228;20.890;2023-07-20T08:22:19;7.35;;;4.20;;
42084;SDS011;27746;52.228;20.890;2023-07-20T08:24:47;8.02;;;4.38;;
42084;SDS011;27746;52.228;20.890;2023-07-20T08:27:14;7.07;;;3.80;;
42084;SDS011;27746;52.228;20.890;2023-07-20T08:29:41;8.05;;;3.70;;
42084;SDS011;27746;52.228;20.890;2023-07-20T08:32:08;7.40;;;3.83;;
42084;SDS011;27746;52.228;20.890;2023-07-20T08:34:36;5.65;;;3.63;;
42084;SDS011;27746;52.228;20.890;2023-07-20T08:37:03;6.32;;;3.05;;
42084;SDS011;27746;52.228;20.890;2023-07-20T08:39:30;5.38;;;3.00;;
42084;SDS011;27746;52.228;20.890;2023-07-20T08:41:58;4.40;;;3.00;;
42084;SDS011;27746;52.228;20.890;2023-07-20T08:44:29;6.63;;;3.38;;
42084;SDS011;27746;52.228;20.890;2023-07-20T08:46:58;5.57;;;3.30;;
42084;SDS011;27746;52.228;20.890;2023-07-20T08:49:27;4.47;;;3.05;;
42084;SDS011;27746;52.228;20.890;2023-07-20T08:51:54;5.45;;;3.28;;
42084;SDS011;27746;52.228;20.890;2023-07-20T08:54:21;4.65;;;3.53;;
42084;SDS011;27746;52.228;20.890;2023-07-20T08:56:48;7.43;;;3.10;;
42084;SDS011;27746;52.228;20.890;2023-07-20T08:59:18;7.30;;;3.50;;
42084;SDS011;27746;52.228;20.890;2023-07-20T09:01:45;6.13;;;3.38;;
42084;SDS011;27746;52.228;20.890;2023-07-20T09:04:13;6.82;;;3.20;;
42084;SDS011;27746;52.228;20.890;2023-07-20T09:06:41;6.10;;;3.10;;
42084;SDS011;27746;52.228;20.890;2023-07-20T09:09:08;5.82;;;3.13;;
42084;SDS011;27746;52.228;20.890;2023-07-20T09:11:36;7.30;;;3.63;;
42084;SDS011;27746;52.228;20.890;2023-07-20T09:14:03;6.65;;;3.85;;
42084;SDS011;27746;52.228;20.890;2023-07-20T09:16:33;7.07;;;3.78;;
42084;SDS011;27746;52.228;20.890;2023-07-20T09:19:14;4.82;;;3.30;;
42084;SDS011;27746;52.228;20.890;2023-07-20T09:21:43;7.90;;;3.55;;
42084;SDS011;27746;52.228;20.890;2023-07-20T09:24:11;6.60;;;3.80;;
42084;SDS011;27746;52.228;20.890;2023-07-20T09:26:40;5.30;;;3.42;;
42084;SDS011;27746;52.228;20.890;2023-07-20T09:29:08;8.57;;;3.55;;
42084;SDS011;27746;52.228;20.890;2023-07-20T09:31:36;6.82;;;3.53;;
42084;SDS011;27746;52.228;20.890;2023-07-20T09:34:04;7.47;;;3.80;;
42084;SDS011;27746;52.228;20.890;2023-07-20T09:36:33;5.03;;;3.00;;
42084;SDS011;27746;52.228;20.890;2023-07-20T09:39:00;8.65;;;3.65;;
42084;SDS011;27746;52.228;20.890;2023-07-20T09:41:29;5.07;;;3.38;;
42084;SDS011;27746;52.228;20.890;2023-07-20T09:43:56;6.60;;;3.00;;
42084;SDS011;27746;52.228;20.890;2023-07-20T09:46:23;7.15;;;3.00;;
42084;SDS011;27746;52.228;20.890;2023-07-20T09:48:54;4.97;;;3.10;;
42084;SDS011;27746;52.228;20.890;2023-07-20T09:51:22;5.88;;;2.97;;
42084;SDS011;27746;52.228;20.890;2023-07-20T09:53:50;4.60;;;2.80;;
42084;SDS011;27746;52.228;20.890;2023-07-20T09:56:21;6.32;;;2.97;;
42084;SDS011;27746;52.228;20.890;2023-07-20T09:58:49;4.47;;;2.85;;
42084;SDS011;27746;52.228;20.890;2023-07-20T10:01:17;4.97;;;3.58;;
42084;SDS011;27746;52.228;20.890;2023-07-20T10:03:47;4.75;;;3.17;;
42084;SDS011;27746;52.228;20.890;2023-07-20T10:06:17;5.50;;;2.63;;
42084;SDS011;27746;52.228;20.890;2023-07-20T10:08:49;8.75;;;2.65;;
42084;SDS011;27746;52.228;20.890;2023-07-20T10:11:19;5.90;;;3.00;;
42084;SDS011;27746;52.228;20.890;2023-07-20T10:13:53;6.00;;;2.92;;
42084;SDS011;27746;52.228;20.890;2023-07-20T10:16:22;5.53;;;2.70;;
42084;SDS011;27746;52.228;20.890;2023-07-20T10:18:54;4.07;;;2.92;;
42084;SDS011;27746;52.228;20.890;2023-07-20T10:21:32;5.35;;;3.47;;
42084;SDS011;27746;52.228;20.890;2023-07-20T10:24:03;5.90;;;2.97;;
42084;SDS011;27746;52.228;20.890;2023-07-20T10:26:31;4.65;;;2.47;;
42084;SDS011;27746;52.228;20.890;2023-07-20T10:28:58;5.03;;;2.72;;
42084;SDS011;27746;52.228;20.890;2023-07-20T10:31:25;5.72;;;3.70;;
42084;SDS011;27746;52.228;20.890;2023-07-20T10:33:54;5.80;;;2.55;;
42084;SDS011;27746;52.228;20.890;2023-07-20T10:36:26;6.00;;;2.53;;
42084;SDS011;27746;52.228;20.890;2023-07-20T10:38:55;5.50;;;2.85;;
42084;SDS011;27746;52.228;20.890;2023-07-20T10:41:27;5.38;;;2.42;;
42084;SDS011;27746;52.228;20.890;2023-07-20T10:43:58;5.60;;;2.10;;
42084;SDS011;27746;52.228;20.890;2023-07-20T10:46:33;6.03;;;2.00;;
42084;SDS011;27746;52.228;20.890;2023-07-20T10:49:08;5.22;;;2.00;;
42084;SDS011;27746;52.228;20.890;2023-07-20T10:51:38;3.90;;;2.45;;
42084;SDS011;27746;52.228;20.890;2023-07-20T10:54:08;3.42;;;2.20;;
42084;SDS011;27746;52.228;20.890;2023-07-20T10:56:57;3.97;;;2.15;;
42084;SDS011;27746;52.228;20.890;2023-07-20T10:59:45;6.03;;;2.38;;
42084;SDS011;27746;52.228;20.890;2023-07-20T11:02:17;5.43;;;2.60;;
42084;SDS011;27746;52.228;20.890;2023-07-20T11:04:45;5.13;;;2.50;;
42084;SDS011;27746;52.228;20.890;2023-07-20T11:07:17;4.10;;;2.13;;
42084;SDS011;27746;52.228;20.890;2023-07-20T11:10:12;4.45;;;2.40;;
42084;SDS011;27746;52.228;20.890;2023-07-20T11:12:41;4.43;;;2.05;;
42084;SDS011;27746;52.228;20.890;2023-07-20T11:15:31;4.15;;;2.38;;
42084;SDS011;27746;52.228;20.890;2023-07-20T11:18:11;3.67;;;2.28;;
42084;SDS011;27746;52.228;20.890;2023-07-20T11:20:39;3.25;;;2.00;;
42084;SDS011;27746;52.228;20.890;2023-07-20T11:23:06;3.80;;;2.25;;
42084;SDS011;27746;52.228;20.890;2023-07-20T11:25:37;4.03;;;2.33;;
42084;SDS011;27746;52.228;20.890;2023-07-20T11:28:09;4.07;;;1.75;;
42084;SDS011;27746;52.228;20.890;2023-07-20T11:30:37;4.70;;;1.90;;
42084;SDS011;27746;52.228;20.890;2023-07-20T11:33:04;6.50;;;2.20;;
42084;SDS011;27746;52.228;20.890;2023-07-20T11:35:34;5.05;;;1.90;;
42084;SDS011;27746;52.228;20.890;2023-07-20T11:38:02;3.25;;;1.88;;
42084;SDS011;27746;52.228;20.890;2023-07-20T11:40:29;6.90;;;2.30;;
42084;SDS011;27746;52.228;20.890;2023-07-20T11:42:56;2.83;;;1.92;;
42084;SDS011;27746;52.228;20.890;2023-07-20T11:45:25;4.15;;;1.98;;
42084;SDS011;27746;52.228;20.890;2023-07-20T11:47:58;4.50;;;2.45;;
42084;SDS011;27746;52.228;20.890;2023-07-20T11:50:26;3.33;;;1.92;;
42084;SDS011;27746;52.228;20.890;2023-07-20T11:52:53;3.33;;;2.17;;
42084;SDS011;27746;52.228;20.890;2023-07-20T11:55:21;5.63;;;2.30;;
42084;SDS011;27746;52.228;20.890;2023-07-20T11:58:00;4.53;;;2.22;;
42084;SDS011;27746;52.228;20.890;2023-07-20T12:00:29;7.53;;;3.55;;
42084;SDS011;27746;52.228;20.890;2023-07-20T12:02:56;8.45;;;3.13;;
42084;SDS011;27746;52.228;20.890;2023-07-20T12:05:25;4.97;;;2.05;;
42084;SDS011;27746;52.228;20.890;2023-07-20T12:07:52;4.65;;;2.03;;
42084;SDS011;27746;52.228;20.890;2023-07-20T12:10:24;5.85;;;1.85;;
42084;SDS011;27746;52.228;20.890;2023-07-20T12:12:53;3.45;;;2.00;;
42084;SDS011;27746;52.228;20.890;2023-07-20T12:15:21;3.13;;;1.70;;
42084;SDS011;27746;52.228;20.890;2023-07-20T12:17:51;2.90;;;2.05;;
42084;SDS011;27746;52.228;20.890;2023-07-20T12:20:25;5.22;;;2.05;;
42084;SDS011;27746;52.228;20.890;2023-07-20T12:22:55;4.90;;;2.17;;
42084;SDS011;27746;52.228;20.890;2023-07-20T12:25:23;3.13;;;1.98;;
42084;SDS011;27746;52.228;20.890;2023-07-20T12:28:00;3.15;;;2.05;;
42084;SDS011;27746;52.228;20.890;2023-07-20T12:30:28;4.53;;;1.73;;
42084;SDS011;27746;52.228;20.890;2023-07-20T12:32:57;4.28;;;2.33;;
42084;SDS011;27746;52.228;20.890;2023-07-20T12:35:24;3.75;;;2.20;;
42084;SDS011;27746;52.228;20.890;2023-07-20T12:37:51;4.43;;;2.00;;
42084;SDS011;27746;52.228;20.890;2023-07-20T12:40:18;3.60;;;1.75;;
42084;SDS011;27746;52.228;20.890;2023-07-20T12:42:47;3.30;;;1.65;;
42084;SDS011;27746;52.228;20.890;2023-07-20T12:45:14;3.50;;;1.70;;
42084;SDS011;27746;52.228;20.890;2023-07-20T12:47:41;5.70;;;2.05;;
42084;SDS011;27746;52.228;20.890;2023-07-20T12:50:10;5.40;;;1.40;;
42084;SDS011;27746;52.228;20.890;2023-07-20T12:52:37;3.50;;;1.40;;
42084;SDS011;27746;52.228;20.890;2023-07-20T12:55:05;4.90;;;1.60;;
42084;SDS011;27746;52.228;20.890;2023-07-20T12:57:34;3.88;;;1.60;;
42084;SDS011;27746;52.228;20.890;2023-07-20T13:00:02;3.70;;;2.15;;
42084;SDS011;27746;52.228;20.890;2023-07-20T13:02:29;4.80;;;2.22;;
42084;SDS011;27746;52.228;20.890;2023-07-20T13:04:57;4.55;;;2.33;;
42084;SDS011;27746;52.228;20.890;2023-07-20T13:07:30;5.38;;;2.22;;
42084;SDS011;27746;52.228;20.890;2023-07-20T13:09:58;4.63;;;1.92;;
42084;SDS011;27746;52.228;20.890;2023-07-20T13:12:25;3.58;;;1.70;;
42084;SDS011;27746;52.228;20.890;2023-07-20T13:14:54;3.22;;;2.40;;
42084;SDS011;27746;52.228;20.890;2023-07-20T13:17:22;4.50;;;2.30;;
42084;SDS011;27746;52.228;20.890;2023-07-20T13:19:50;5.35;;;2.20;;
42084;SDS011;27746;52.228;20.890;2023-07-20T13:22:17;4.45;;;2.50;;
42084;SDS011;27746;52.228;20.890;2023-07-20T13:24:46;4.60;;;2.60;;
42084;SDS011;27746;52.228;20.890;2023-07-20T13:27:14;4.90;;;2.80;;
42084;SDS011;27746;52.228;20.890;2023-07-20T13:29:41;4.55;;;2.53;;
42084;SDS011;27746;52.228;20.890;2023-07-20T13:32:08;3.80;;;2.15;;
42084;SDS011;27746;52.228;20.890;2023-07-20T13:34:35;4.75;;;2.05;;
42084;SDS011;27746;52.228;20.890;2023-07-20T13:37:02;4.25;;;2.25;;
42084;SDS011;27746;52.228;20.890;2023-07-20T13:39:30;5.95;;;2.30;;
42084;SDS011;27746;52.228;20.890;2023-07-20T13:41:58;3.88;;;2.50;;
42084;SDS011;27746;52.228;20.890;2023-07-20T13:44:26;5.35;;;2.95;;
42084;SDS011;27746;52.228;20.890;2023-07-20T13:46:54;4.13;;;2.20;;
42084;SDS011;27746;52.228;20.890;2023-07-20T13:49:21;6.45;;;2.78;;
42084;SDS011;27746;52.228;20.890;2023-07-20T13:51:48;5.20;;;2.45;;
42084;SDS011;27746;52.228;20.890;2023-07-20T13:54:16;5.95;;;2.50;;
42084;SDS011;27746;52.228;20.890;2023-07-20T13:56:43;3.97;;;2.30;;
42084;SDS011;27746;52.228;20.890;2023-07-20T13:59:11;5.22;;;2.30;;
42084;SDS011;27746;52.228;20.890;2023-07-20T14:01:38;5.40;;;2.42;;
42084;SDS011;27746;52.228;20.890;2023-07-20T14:04:05;4.32;;;2.20;;
42084;SDS011;27746;52.228;20.890;2023-07-20T14:06:32;4.25;;;2.33;;
42084;SDS011;27746;52.228;20.890;2023-07-20T14:08:59;3.83;;;1.88;;
42084;SDS011;27746;52.228;20.890;2023-07-20T14:11:27;3.45;;;1.80;;
42084;SDS011;27746;52.228;20.890;2023-07-20T14:13:54;4.60;;;2.35;;
42084;SDS011;27746;52.228;20.890;2023-07-20T14:16:24;5.13;;;2.58;;
42084;SDS011;27746;52.228;20.890;2023-07-20T14:18:51;5.35;;;2.20;;
42084;SDS011;27746;52.228;20.890;2023-07-20T14:21:19;3.17;;;1.90;;
42084;SDS011;27746;52.228;20.890;2023-07-20T14:23:47;6.55;;;2.10;;
42084;SDS011;27746;52.228;20.890;2023-07-20T14:26:15;3.03;;;1.50;;
42084;SDS011;27746;52.228;20.890;2023-07-20T14:28:42;3.13;;;1.50;;
42084;SDS011;27746;52.228;20.890;2023-07-20T14:31:10;6.30;;;1.83;;
42084;SDS011;27746;52.228;20.890;2023-07-20T14:33:38;4.20;;;1.65;;
42084;SDS011;27746;52.228;20.890;2023-07-20T14:36:05;4.43;;;1.88;;
42084;SDS011;27746;52.228;20.890;2023-07-20T14:38:32;3.05;;;2.00;;
42084;SDS011;27746;52.228;20.890;2023-07-20T14:41:00;6.03;;;1.75;;
42084;SDS011;27746;52.228;20.890;2023-07-20T14:43:28;5.05;;;2.13;;
42084;SDS011;27746;52.228;20.890;2023-07-20T14:45:54;7.60;;;3.65;;